• Join FlightAware (Why Join?)
  • Login
  • US Flag 
08:18PM EST


 

Airport Tracker/Info


-or-


 

Live Flight TrackerFlight Track Log ✈ N508QS ✈ 07-Dec-2013 ✈ KLFT - XS75

Flight Track Log - Related Links

Times and Time Zones

All times are in EST time to prevent confusion due to time zone crossing. See the N508QS flight status page for this flight to view local times or setup timezone preferences in your user account.

Time Position Orientation Groundspeed Altitude Reporting Facility
EST Latitude Longitude Course Direction KTS MPH feet Rate Location/Type
11:46AM 30.1933 -92.1308 245° Southwest 251 289 10,000  Level Houston Center
11:47AM 30.1547 -92.2181 243° Southwest 289 333 12,000 2,580 Climbing Houston Center
11:48AM 30.1156 -92.3144 245° Southwest 326 375 15,400 2,880 Climbing Houston Center
11:49AM 30.0744 -92.4133 244° Southwest 339 390 18,000 1,260 Climbing Houston Center
11:50AM 30.2457 -92.6554 270° West  Level Estimated
11:50AM 30.0322 -92.5139 244° Southwest 346 398 18,000  Level Houston Center
11:51AM 29.9828 -92.6336 245° Southwest 346 398 18,000 420 Level Houston Center
11:52AM 29.9850 -92.7439 271° West 362 417 18,900 1,440 Climbing Houston Center
11:53AM 30.0317 -92.8519 297° West 376 433 21,000 1,980 Climbing Houston Center
11:54AM 30.0803 -92.9633 297° West 389 448 23,000 960 Climbing Houston Center
11:55AM 30.1278 -93.0775 296° West 394 453 23,000 540 Level Houston Center
11:56AM 30.1447 -93.1981 279° West 385 443 24,200 1,800 Climbing Houston Center
11:57AM 30.1500 -93.3228 273° West 385 443 26,800 2,520 Climbing Houston Center
11:58AM 30.1533 -93.4522 272° West 398 458 29,400 2,400 Climbing Houston Center
11:59AM 30.1586 -93.5872 273° West 411 473 31,800 2,220 Climbing Houston Center
12:00PM 30.1631 -93.7203 272° West 411 473 34,000 1,020 Climbing Houston Center
12:01PM 30.1675 -93.8581 272° West 423 487 34,000  Level Houston Center
12:02PM 30.1731 -94.0256 272° West 432 497 34,000  Level Houston Center
12:03PM 30.1767 -94.1639 272° West 432 497 34,000  Level Houston Center
12:04PM 30.1808 -94.3031 272° West 434 499 34,000  Level Houston Center
12:05PM 30.1850 -94.4414 272° West 432 497 34,000  Level Houston Center
12:06PM 30.1878 -94.5828 271° West 431 496 34,000  Level Houston Center
12:07PM 30.1950 -94.7206 274° West 432 497 34,000  Level Houston Center
12:08PM 30.2064 -94.8572 276° West 431 496 34,000  Level Houston Center
12:09PM 30.2161 -94.9944 275° West 431 496 34,000  Level Houston Center
12:10PM 30.2278 -95.1603 275° West 433 498 34,000  Level Houston Center
12:11PM 30.2375 -95.2961 275° West 431 496 34,000  Level Houston Center
12:12PM 30.2469 -95.4311 275° West 426 490 34,000  Level Houston Center
12:13PM 30.2569 -95.5681 275° West 429 494 34,000 -60 Level Houston Center
12:14PM 30.2650 -95.7042 274° West 428 493 33,900 -840 Descending Houston Center
12:16PM 30.2739 -95.8342 275° West 412 474 32,300 -1,620 Descending Houston Center
12:17PM 30.2842 -95.9867 275° West 399 459 30,600 -1,560 Descending Houston Center
12:18PM 30.2922 -96.1028 275° West 402 463 29,200 -1,440 Descending Houston Center
12:19PM 30.3003 -96.2311 274° West 398 458 27,700 -1,620 Descending Houston Center
12:20PM 30.3094 -96.3772 274° West 387 445 25,900 -1,680 Descending Houston Center
12:21PM 30.3178 -96.5017 274° West 383 441 24,300 -1,560 Descending Houston Center
12:22PM 30.3250 -96.6228 274° West 377 434 22,800 -1,500 Descending Houston Center
12:23PM 30.3331 -96.7433 274° West 373 429 21,300 -1,380 Descending Houston Center
12:24PM 30.3400 -96.8594 274° West 361 415 20,000 -660 Descending Houston Center
12:25PM 30.3475 -96.9728 274° West 351 404 20,000 -60 Level Houston Center
12:26PM 30.3536 -97.0892 274° West 356 410 19,900 -1,020 Descending Houston Center
12:27PM 30.3608 -97.2025 274° West 351 404 17,900 -1,740 Descending Houston Center
12:28PM 30.3667 -97.3119 274° West 340 391 16,400 -1,800 Descending Houston Center
12:29PM 30.3733 -97.4186 274° West 331 381 14,300 -1,680 Descending Houston Center
12:30PM 30.3786 -97.5261 273° West 330 380 13,000 -1,260 Descending Houston Center
12:31PM 30.3889 -97.6483 276° West 324 373 11,800 -1,380 Descending Houston Center
12:32PM 30.3961 -97.7347 276° West 280 322 10,200 -1,620 Descending Houston Center
12:33PM 30.4031 -97.8208 275° West 267 307 8,500 -1,920 Descending Houston Center
12:34PM 30.4106 -97.9075 276° West 267 307 6,300 -1,860 Descending Houston Center
12:35PM 30.4169 -97.9981 275° West 275 316 4,700 -1,140 Descending Houston Center
12:36PM 30.4247 -98.0883 276° West 278 320 4,000 -540 Descending Houston Center
12:37PM 30.4317 -98.1789 275° West 279 321 3,700 -180 Descending Houston Center
12:38PM 30.4400 -98.2656 276° West 275 316 3,700  Level Houston Center
12:39PM 30.4461 -98.3353 276° West 239 275 3,700  Level Houston Center
12:40PM 30.4503 -98.4064 274° West 224 258 3,700  Level Houston Center
12:41PM 30.4556 -98.4767 275° West 219 252 3,700  Level Houston Center
12:42PM 30.4503 -98.5581 266° West 222 255 3,700  Level Houston Center
12:43PM 30.4139 -98.5194 138° Southeast 214 246 3,700  Level Houston Center
12:45PM 30.4500 -98.4833 90° East  Level FlightAware Approximate
12:52PM 30.4564 -98.4897 90° East  Level Estimated
12:53PM 30.4564 -98.4897 90° East  Level Estimated
12:54PM 30.4564 -98.4897 90° East  Level Estimated
12:55PM 30.4564 -98.4897 90° East  Level Estimated
12:56PM 30.4564 -98.4897 90° East  Level Estimated
12:57PM 30.4564 -98.4897 90° East  Level Estimated
12:58PM 30.4564 -98.4897 90° East  Level Estimated
12:59PM 30.4564 -98.4897 90° East  Level Estimated